OENG

Nejran Airport

Saudi Arabia
TAF OENG 252300Z 2600/2706 28006KT 6000 SCT030 SCT090 TEMPO 2600/2612 VRB20KT 3000 BLDU TSRA BKN030 FEW035CB BECMG 2606/2608 06010KT BECMG 2610/2612 26014KT
Issued Valid From Valid To
Apr-25 @ 23:00 UTC
(5 hours ago)
Apr-26 @ 00:00 UTC
(4 hours ago)
Apr-27 @ 06:00 UTC
(-1 days ago)
Apr-26 @ 00:00 to Apr-26 @ 06:00
TAF OENG 252300Z 2600/2706 28006KT 6000 SCT030 SCT090
Wind Visibility Clouds
280° at 6 knots 6,003 meters
  • Scattered at 3,000' AGL
  • Scattered at 9,000' AGL
Temporary Apr-26 @ 00:00 to Apr-26 @ 12:00
TEMPO 2600/2612 VRB20KT 3000 BLDU TSRA BKN030 FEW035CB
Wind Visibility Clouds Conditions
Variable at 20 knots 2,993 meters
  • Broken at 3,000' AGL
  • Few at 3,500' AGL
  • Blowing
  • Dust
  • Thunderstorm
  • Rain
Becoming Apr-26 @ 06:00 to Apr-26 @ 10:00
BECMG 2606/2608 06010KT
Wind Visibility Clouds
60° at 10 knots 6,003 meters
  • Scattered at 3,000' AGL
  • Scattered at 9,000' AGL
Becoming Apr-26 @ 10:00 to Apr-27 @ 06:00
BECMG 2610/2612 26014KT
Wind Visibility Clouds
260° at 14 knots 6,003 meters
  • Scattered at 3,000' AGL
  • Scattered at 9,000' AGL
TAF OENG 252300Z 2600/2706 28006KT 6000 SCT030 SCT090 TEMPO 2600/2612 VRB20KT 3000 BLDU TSRA BKN030 FEW035CB BECMG 2606/2608 06010KT BECMG 2610/2612 26014KT
Issued Apr-25 @ 23:00 UTC
(5 hours ago)
Valid From Apr-26 @ 00:00 UTC
(4 hours ago)
Valid To Apr-27 @ 06:00 UTC
(-1 days ago)
Apr-26 @ 00:00 - Apr-26 @ 06:00
Wind Visibility
280° at 6 knots 6,003 meters
Clouds
  • Scattered at 3,000' AGL
  • Scattered at 9,000' AGL
Temporary Apr-26 @ 00:00 - Apr-26 @ 12:00
Wind Visibility
Variable at 20 knots 2,993 meters
Clouds
  • Broken at 3,000' AGL
  • Few at 3,500' AGL
Conditions
  • Blowing
  • Dust
  • Thunderstorm
  • Rain
Becoming Apr-26 @ 06:00 - Apr-26 @ 10:00
Wind Visibility
60° at 10 knots 6,003 meters
Clouds
  • Scattered at 3,000' AGL
  • Scattered at 9,000' AGL
Becoming Apr-26 @ 10:00 - Apr-27 @ 06:00
Wind Visibility
260° at 14 knots 6,003 meters
Clouds
  • Scattered at 3,000' AGL
  • Scattered at 9,000' AGL